createdAt,value
2018-06-02T00:00:33.596Z,18.90
2018-06-02T00:03:01.068Z,18.90
2018-06-02T00:05:28.651Z,18.90
2018-06-02T00:07:56.091Z,18.90
2018-06-02T00:10:23.549Z,18.90
2018-06-02T00:12:51.109Z,18.90
2018-06-02T00:15:18.574Z,18.90
2018-06-02T00:17:46.037Z,18.90
2018-06-02T00:20:13.495Z,18.90
2018-06-02T00:22:40.943Z,19.00
2018-06-02T00:25:08.410Z,19.00
2018-06-02T00:27:35.872Z,19.00
2018-06-02T00:30:03.416Z,19.10
2018-06-02T00:32:30.885Z,19.10
2018-06-02T00:34:58.340Z,19.20
2018-06-02T00:37:25.807Z,19.30
2018-06-02T00:39:53.348Z,19.40
2018-06-02T00:42:20.828Z,19.20
2018-06-02T00:44:48.370Z,19.20
2018-06-02T00:47:15.857Z,19.10
2018-06-02T00:49:43.310Z,19.00
2018-06-02T00:52:10.771Z,19.10
2018-06-02T00:54:51.118Z,19.00
2018-06-02T00:57:18.586Z,19.00
2018-06-02T00:59:46.032Z,19.00
2018-06-02T01:02:13.491Z,19.00
2018-06-02T01:04:40.953Z,19.00
2018-06-02T01:07:08.412Z,19.00
2018-06-02T01:09:35.878Z,19.00
2018-06-02T01:12:03.346Z,18.90
2018-06-02T01:14:31.600Z,18.90
2018-06-02T01:17:00.588Z,19.00
2018-06-02T01:19:28.057Z,19.00
2018-06-02T01:21:55.532Z,19.10
2018-06-02T01:24:22.985Z,19.10
2018-06-02T01:26:50.447Z,19.10
2018-06-02T01:29:17.897Z,19.20
2018-06-02T01:31:45.377Z,19.30
2018-06-02T01:34:13.615Z,19.50
2018-06-02T01:36:41.189Z,19.50
2018-06-02T01:39:08.657Z,19.50
2018-06-02T01:41:36.122Z,19.50
2018-06-02T01:44:04.349Z,19.40
2018-06-02T01:46:31.841Z,19.40
2018-06-02T01:48:59.319Z,19.40
2018-06-02T01:51:26.785Z,19.30
2018-06-02T01:53:55.015Z,19.20
2018-06-02T01:56:22.494Z,19.20
2018-06-02T01:58:50.039Z,19.30
2018-06-02T02:01:17.505Z,19.40
2018-06-02T02:03:45.126Z,19.40
2018-06-02T02:06:12.578Z,19.30
2018-06-02T02:08:40.050Z,19.20
2018-06-02T02:11:07.512Z,19.10
2018-06-02T02:13:35.010Z,19.10
2018-06-02T02:16:02.464Z,19.00
2018-06-02T02:18:30.021Z,19.00
2018-06-02T02:20:57.485Z,19.00
2018-06-02T02:23:25.033Z,19.00
2018-06-02T02:25:52.497Z,18.90
2018-06-02T02:28:19.960Z,18.90
2018-06-02T02:30:47.422Z,18.90
2018-06-02T02:33:14.977Z,19.00
2018-06-02T02:35:42.465Z,19.00
2018-06-02T02:38:10.706Z,19.00
2018-06-02T02:40:38.167Z,19.00
2018-06-02T02:43:05.641Z,19.00
2018-06-02T02:45:33.194Z,19.10
2018-06-02T02:48:00.750Z,19.10
2018-06-02T02:50:28.212Z,19.10
2018-06-02T02:52:55.683Z,19.00
2018-06-02T02:55:23.220Z,19.00
2018-06-02T02:57:50.700Z,18.90
2018-06-02T03:00:18.181Z,18.90
2018-06-02T03:02:46.420Z,19.00
2018-06-02T03:05:15.404Z,18.90
2018-06-02T03:07:42.872Z,18.90
2018-06-02T03:10:10.333Z,19.00
2018-06-02T03:12:37.809Z,19.00
2018-06-02T03:15:05.274Z,18.90
2018-06-02T03:17:33.587Z,19.00
2018-06-02T03:20:01.088Z,19.00
2018-06-02T03:22:28.528Z,19.00
2018-06-02T03:24:55.984Z,19.00
2018-06-02T03:27:23.457Z,19.00
2018-06-02T03:29:50.929Z,19.10
2018-06-02T03:32:18.490Z,19.10
2018-06-02T03:34:46.040Z,19.10
2018-06-02T03:37:13.511Z,19.20
2018-06-02T03:39:40.981Z,19.20
2018-06-02T03:42:08.446Z,19.20
2018-06-02T03:44:36.675Z,19.10
2018-06-02T03:47:04.131Z,19.10
2018-06-02T03:49:31.603Z,19.10
2018-06-02T03:51:59.062Z,19.10
2018-06-02T03:54:26.535Z,19.30
2018-06-02T03:56:53.992Z,19.20
2018-06-02T03:59:21.453Z,19.20
2018-06-02T04:01:48.916Z,19.20
2018-06-02T04:04:16.383Z,19.20
2018-06-02T04:06:44.609Z,19.10
2018-06-02T04:09:12.078Z,19.10
2018-06-02T04:11:39.535Z,19.10
2018-06-02T04:14:07.009Z,19.10
2018-06-02T04:16:34.574Z,19.20
2018-06-02T04:19:03.574Z,19.30
2018-06-02T04:21:31.033Z,19.20
2018-06-02T04:23:58.510Z,19.40
2018-06-02T04:26:26.730Z,19.30
2018-06-02T04:28:54.209Z,19.20
2018-06-02T04:31:21.668Z,19.30
2018-06-02T04:33:49.151Z,19.40
2018-06-02T04:36:16.622Z,19.30
2018-06-02T04:38:44.934Z,19.10
2018-06-02T04:41:12.379Z,19.10
2018-06-02T04:43:39.896Z,19.10
2018-06-02T04:46:07.359Z,19.10
2018-06-02T04:48:34.829Z,19.00
2018-06-02T04:51:02.295Z,19.00
2018-06-02T04:53:30.544Z,18.90
2018-06-02T04:55:58.013Z,18.90
2018-06-02T04:58:25.481Z,19.00
2018-06-02T05:00:52.936Z,19.00
2018-06-02T05:03:20.413Z,19.10
2018-06-02T05:05:48.644Z,19.10
2018-06-02T05:08:16.113Z,19.10
2018-06-02T05:10:43.586Z,19.20
2018-06-02T05:13:11.061Z,19.30
2018-06-02T05:15:39.296Z,19.30
2018-06-02T05:18:06.772Z,19.40
2018-06-02T05:20:34.228Z,19.40
2018-06-02T05:23:01.696Z,19.40
2018-06-02T05:25:29.250Z,19.40
2018-06-02T05:27:56.714Z,19.50
2018-06-02T05:30:24.171Z,19.50
2018-06-02T05:32:51.637Z,19.50
2018-06-02T05:35:19.213Z,19.50
2018-06-02T05:37:46.741Z,19.40
2018-06-02T05:40:14.203Z,19.40
2018-06-02T05:42:41.669Z,19.40
2018-06-02T05:45:09.149Z,19.40
2018-06-02T05:47:37.373Z,19.40
2018-06-02T05:50:04.846Z,19.30
2018-06-02T05:52:32.309Z,19.40
2018-06-02T05:54:59.811Z,19.40
2018-06-02T05:57:27.276Z,19.40
2018-06-02T05:59:54.805Z,19.40
2018-06-02T06:02:22.232Z,19.30
2018-06-02T06:04:49.708Z,19.20
2018-06-02T06:07:17.169Z,19.00
2018-06-02T06:09:44.644Z,19.00
2018-06-02T06:12:12.872Z,19.00
2018-06-02T06:14:40.366Z,19.10
2018-06-02T06:17:08.596Z,19.30
2018-06-02T06:19:36.126Z,19.30
2018-06-02T06:22:03.553Z,19.30
2018-06-02T06:24:31.015Z,19.30
2018-06-02T06:26:58.510Z,19.40
2018-06-02T06:29:25.958Z,19.50
2018-06-02T06:31:54.185Z,19.40
2018-06-02T06:34:21.653Z,19.40
2018-06-02T06:36:49.122Z,19.20
2018-06-02T06:39:16.586Z,19.20
2018-06-02T06:41:44.058Z,19.30
2018-06-02T06:44:12.298Z,19.40
2018-06-02T06:46:39.760Z,19.40
2018-06-02T06:49:07.244Z,19.60
2018-06-02T06:51:34.709Z,19.70
2018-06-02T06:54:02.180Z,19.70
2018-06-02T06:56:30.411Z,19.60
2018-06-02T06:58:57.891Z,19.50
2018-06-02T07:01:25.367Z,19.60
2018-06-02T07:03:53.595Z,19.40
2018-06-02T07:06:21.069Z,19.40
2018-06-02T07:08:48.554Z,19.50
2018-06-02T07:11:16.022Z,19.40
2018-06-02T07:13:44.256Z,19.70
2018-06-02T07:16:11.715Z,19.70
2018-06-02T07:18:39.205Z,19.70
2018-06-02T07:21:06.666Z,19.50
2018-06-02T07:23:34.131Z,19.40
2018-06-02T07:26:02.378Z,19.20
2018-06-02T07:28:29.839Z,19.20
2018-06-02T07:30:57.347Z,19.20
2018-06-02T07:33:24.817Z,19.20
2018-06-02T07:35:52.266Z,19.20
2018-06-02T07:38:19.738Z,19.30
2018-06-02T07:40:47.223Z,19.50
2018-06-02T07:43:14.709Z,19.50
2018-06-02T07:45:42.206Z,19.60
2018-06-02T07:48:09.668Z,19.80
2018-06-02T07:50:37.148Z,19.80
2018-06-02T07:53:04.613Z,19.80
2018-06-02T07:55:32.132Z,19.90
2018-06-02T07:57:59.553Z,19.90
2018-06-02T08:00:27.028Z,19.90
2018-06-02T08:02:55.268Z,19.90
2018-06-02T08:05:22.745Z,19.90
2018-06-02T08:07:50.259Z,19.90
2018-06-02T08:10:17.716Z,19.80
2018-06-02T08:12:45.189Z,19.80
2018-06-02T08:15:12.656Z,19.90
2018-06-02T08:17:40.135Z,19.80
2018-06-02T08:20:07.601Z,19.70
2018-06-02T08:22:35.071Z,19.30
2018-06-02T08:25:02.539Z,19.20
2018-06-02T08:27:30.767Z,19.40
2018-06-02T08:29:58.233Z,19.40
2018-06-02T08:32:25.707Z,19.50
2018-06-02T08:34:53.188Z,19.60
2018-06-02T08:37:21.411Z,19.40
2018-06-02T08:39:48.884Z,19.40
2018-06-02T08:42:16.357Z,19.60
2018-06-02T08:44:44.091Z,19.80
2018-06-02T08:47:11.557Z,19.80
2018-06-02T08:49:39.023Z,19.90
2018-06-02T08:52:06.494Z,19.90
2018-06-02T08:54:33.966Z,19.90
2018-06-02T08:57:01.444Z,19.80
2018-06-02T08:59:29.701Z,19.80
2018-06-02T09:01:57.160Z,19.80
2018-06-02T09:04:24.631Z,19.80
2018-06-02T09:06:52.856Z,19.60
2018-06-02T09:09:20.330Z,19.60
2018-06-02T09:11:47.796Z,19.60
2018-06-02T09:14:15.268Z,19.60
2018-06-02T09:16:42.738Z,19.70
2018-06-02T09:19:10.216Z,19.70
2018-06-02T09:21:38.453Z,19.70
2018-06-02T09:24:05.928Z,19.60
2018-06-02T09:26:34.168Z,19.40
2018-06-02T09:29:01.650Z,19.40
2018-06-02T09:31:29.113Z,19.50
2018-06-02T09:33:56.598Z,19.50
2018-06-02T09:36:24.849Z,19.50
2018-06-02T09:38:52.309Z,19.40
2018-06-02T09:41:19.786Z,19.60
2018-06-02T09:43:48.015Z,19.60
2018-06-02T09:46:15.487Z,19.60
2018-06-02T09:48:42.956Z,19.50
2018-06-02T09:51:10.481Z,19.50
2018-06-02T09:53:37.964Z,19.60
2018-06-02T09:56:05.453Z,19.70
2018-06-02T09:58:32.951Z,19.80
2018-06-02T10:01:00.417Z,19.90
2018-06-02T10:03:29.397Z,19.90
2018-06-02T10:05:56.865Z,19.90
2018-06-02T10:08:24.336Z,19.90
2018-06-02T10:10:51.805Z,19.60
2018-06-02T10:13:19.286Z,19.40
2018-06-02T10:15:46.752Z,19.40
2018-06-02T10:18:14.211Z,19.60
2018-06-02T10:20:41.679Z,19.60
2018-06-02T10:23:09.910Z,19.60
2018-06-02T10:25:37.375Z,19.60
2018-06-02T10:28:04.851Z,19.60
2018-06-02T10:30:32.846Z,19.70
2018-06-02T10:33:00.353Z,19.90
2018-06-02T10:35:27.910Z,19.80
2018-06-02T10:37:55.354Z,19.70
2018-06-02T10:40:22.812Z,19.60
2018-06-02T10:42:50.272Z,19.60
2018-06-02T10:45:17.735Z,19.80
2018-06-02T10:47:45.213Z,19.80
2018-06-02T10:50:12.694Z,19.90
2018-06-02T10:52:40.171Z,19.90
2018-06-02T10:55:07.646Z,20.00
2018-06-02T10:57:36.157Z,20.20
2018-06-02T11:00:03.628Z,20.20
2018-06-02T11:02:31.100Z,20.40
2018-06-02T11:04:58.569Z,20.20
2018-06-02T11:07:26.037Z,20.00
2018-06-02T11:09:53.512Z,20.00
2018-06-02T11:12:22.004Z,20.20
2018-06-02T11:14:50.229Z,20.30
2018-06-02T11:17:17.697Z,20.30
2018-06-02T11:19:45.180Z,20.40
2018-06-02T11:22:13.416Z,20.70
2018-06-02T11:24:40.897Z,20.70
2018-06-02T11:27:08.361Z,20.70
2018-06-02T11:29:35.825Z,20.90
2018-06-02T11:32:03.302Z,21.10
2018-06-02T11:34:31.531Z,21.20
2018-06-02T11:36:59.001Z,21.20
2018-06-02T11:39:26.480Z,21.30
2018-06-02T11:41:53.959Z,21.40
2018-06-02T11:44:22.229Z,21.30
2018-06-02T11:46:49.660Z,21.30
2018-06-02T11:49:17.124Z,21.30
2018-06-02T11:51:44.593Z,21.20
2018-06-02T11:54:12.053Z,21.20
2018-06-02T11:56:39.525Z,21.10
2018-06-02T11:59:07.748Z,21.30
2018-06-02T12:01:35.219Z,21.30
2018-06-02T12:04:02.684Z,21.50
2018-06-02T12:06:30.144Z,21.50
2018-06-02T12:08:57.611Z,21.50
2018-06-02T12:11:25.085Z,21.60
2018-06-02T12:13:52.586Z,21.70
2018-06-02T12:16:20.786Z,21.60
2018-06-02T12:18:48.249Z,21.60
2018-06-02T12:21:16.487Z,21.30
2018-06-02T12:23:43.941Z,21.30
2018-06-02T12:26:11.417Z,21.50
2018-06-02T12:28:38.896Z,21.70
2018-06-02T12:31:06.353Z,21.80
2018-06-02T12:33:33.818Z,21.80
2018-06-02T12:36:01.293Z,21.80
2018-06-02T12:38:28.761Z,21.90
2018-06-02T12:40:56.261Z,21.90
2018-06-02T12:43:23.731Z,21.90
2018-06-02T12:45:51.199Z,22.00
2018-06-02T12:48:18.697Z,22.10
2018-06-02T12:50:46.177Z,22.10
2018-06-02T12:53:14.431Z,22.10
2018-06-02T12:55:41.893Z,22.10
2018-06-02T12:58:09.366Z,22.20
2018-06-02T13:00:37.600Z,22.20
2018-06-02T13:03:05.846Z,22.20
2018-06-02T13:05:33.312Z,22.20
2018-06-02T13:08:00.776Z,22.30
2018-06-02T13:10:28.247Z,22.30
2018-06-02T13:12:55.789Z,22.50
2018-06-02T13:15:23.251Z,22.50
2018-06-02T13:17:50.745Z,22.60
2018-06-02T13:20:18.210Z,22.80
2018-06-02T13:22:45.673Z,22.80
2018-06-02T13:25:13.158Z,22.70
2018-06-02T13:27:40.618Z,22.70
2018-06-02T13:30:08.092Z,22.70
2018-06-02T13:32:35.565Z,22.60
2018-06-02T13:35:03.035Z,22.40
2018-06-02T13:37:30.487Z,22.40
2018-06-02T13:39:57.954Z,22.50
2018-06-02T13:42:25.433Z,22.50
2018-06-02T13:44:52.899Z,22.40
2018-06-02T13:47:20.365Z,22.50
2018-06-02T13:49:48.583Z,22.70
2018-06-02T13:52:16.062Z,22.70
2018-06-02T13:54:43.541Z,22.40
2018-06-02T13:57:11.013Z,22.40
2018-06-02T13:59:38.490Z,22.40
2018-06-02T14:02:06.732Z,22.50
2018-06-02T14:04:34.198Z,22.50
2018-06-02T14:07:01.671Z,22.50
2018-06-02T14:09:29.905Z,22.40
2018-06-02T14:11:57.448Z,22.40
2018-06-02T14:14:24.918Z,22.30
2018-06-02T14:16:52.390Z,22.50
2018-06-02T14:19:19.876Z,22.50
2018-06-02T14:21:47.380Z,22.50
2018-06-02T14:24:14.839Z,22.50
2018-06-02T14:26:42.309Z,22.40
2018-06-02T14:29:09.789Z,22.40
2018-06-02T14:31:37.252Z,22.40
2018-06-02T14:34:04.719Z,22.30
2018-06-02T14:36:32.183Z,22.30
2018-06-02T14:38:59.653Z,22.20
2018-06-02T14:41:27.122Z,22.20
2018-06-02T14:43:55.442Z,22.10
2018-06-02T14:46:22.899Z,22.10
2018-06-02T14:48:50.386Z,22.10
2018-06-02T14:51:17.853Z,22.20
2018-06-02T14:53:45.308Z,22.40
2018-06-02T14:56:12.776Z,22.40
2018-06-02T14:58:40.238Z,22.40
2018-06-02T15:01:07.699Z,22.40
2018-06-02T15:03:35.927Z,22.10
2018-06-02T15:06:03.407Z,22.10
2018-06-02T15:08:30.881Z,22.10
2018-06-02T15:10:58.343Z,22.10
2018-06-02T15:13:26.028Z,22.20
2018-06-02T15:15:54.487Z,22.30
2018-06-02T15:18:22.114Z,22.30
2018-06-02T15:20:49.595Z,22.30
2018-06-02T15:23:17.435Z,22.20
2018-06-02T15:25:44.966Z,22.00
2018-06-02T15:28:14.363Z,22.10
2018-06-02T15:30:42.598Z,22.40
2018-06-02T15:33:10.067Z,22.30
2018-06-02T15:35:37.531Z,22.40
2018-06-02T15:38:05.014Z,22.50
2018-06-02T15:40:33.227Z,22.90
2018-06-02T15:43:00.708Z,22.90
2018-06-02T15:45:29.006Z,23.00
2018-06-02T15:47:56.943Z,22.80
2018-06-02T15:50:24.451Z,22.90
2018-06-02T15:52:52.695Z,23.10
2018-06-02T15:55:20.159Z,23.10
2018-06-02T15:57:47.733Z,23.20
2018-06-02T16:00:15.218Z,23.30
2018-06-02T16:02:43.547Z,23.60
2018-06-02T16:05:11.047Z,23.60
2018-06-02T16:07:39.292Z,23.40
2018-06-02T16:10:06.767Z,23.40
2018-06-02T16:12:34.239Z,23.40
2018-06-02T16:15:02.480Z,23.20
2018-06-02T16:17:29.939Z,23.20
2018-06-02T16:19:57.399Z,23.20
2018-06-02T16:22:24.901Z,23.20
2018-06-02T16:24:53.136Z,23.40
2018-06-02T16:27:20.618Z,23.40
2018-06-02T16:29:48.072Z,23.30
2018-06-02T16:32:15.538Z,23.10
2018-06-02T16:34:42.995Z,23.20
2018-06-02T16:37:10.472Z,23.20
2018-06-02T16:39:38.009Z,23.10
2018-06-02T16:42:05.482Z,23.00
2018-06-02T16:44:33.713Z,22.80
2018-06-02T16:47:01.180Z,22.80
2018-06-02T16:49:28.721Z,22.80
2018-06-02T16:51:56.179Z,22.70
2018-06-02T16:54:23.640Z,22.50
2018-06-02T16:56:51.113Z,22.50
2018-06-02T16:59:18.575Z,22.40
2018-06-02T17:01:46.073Z,22.30
2018-06-02T17:04:14.301Z,22.30
2018-06-02T17:06:41.773Z,22.30
2018-06-02T17:09:09.235Z,22.30
2018-06-02T17:11:36.698Z,22.30
2018-06-02T17:14:04.212Z,22.30
2018-06-02T17:16:32.436Z,22.30
2018-06-02T17:18:59.913Z,22.30
2018-06-02T17:21:27.407Z,22.20
2018-06-02T17:23:54.908Z,22.20
2018-06-02T17:26:22.373Z,22.30
2018-06-02T17:28:49.833Z,22.30
2018-06-02T17:31:18.183Z,22.30
2018-06-02T17:33:45.604Z,22.30
2018-06-02T17:36:13.824Z,22.30
2018-06-02T17:38:41.294Z,22.20
2018-06-02T17:41:08.758Z,22.40
2018-06-02T17:43:37.005Z,22.40
2018-06-02T17:46:04.462Z,22.50
2018-06-02T17:48:31.928Z,22.40
2018-06-02T17:50:59.393Z,22.20
2018-06-02T17:53:26.863Z,22.20
2018-06-02T17:55:54.320Z,22.20
2018-06-02T17:58:21.783Z,22.20
2018-06-02T18:00:49.246Z,22.20
2018-06-02T18:03:16.714Z,22.20
2018-06-02T18:05:44.960Z,22.30
2018-06-02T18:08:12.437Z,22.20
2018-06-02T18:10:39.891Z,22.30
2018-06-02T18:13:07.351Z,22.30
2018-06-02T18:15:34.822Z,22.30
2018-06-02T18:18:02.271Z,22.40
2018-06-02T18:20:29.742Z,22.50
2018-06-02T18:22:57.205Z,22.40
2018-06-02T18:25:24.656Z,22.30
2018-06-02T18:27:52.138Z,22.20
2018-06-02T18:30:20.355Z,22.10
2018-06-02T18:32:47.824Z,22.10
2018-06-02T18:35:15.293Z,22.00
2018-06-02T18:37:42.764Z,22.00
2018-06-02T18:40:10.239Z,22.00
2018-06-02T18:42:37.707Z,22.10
2018-06-02T18:45:05.923Z,22.00
2018-06-02T18:47:33.407Z,22.00
2018-06-02T18:50:00.873Z,22.10
2018-06-02T18:52:28.357Z,22.10
2018-06-02T18:54:55.831Z,22.00
2018-06-02T18:57:23.328Z,21.80
2018-06-02T18:59:50.795Z,21.80
2018-06-02T19:02:18.256Z,21.80
2018-06-02T19:04:45.719Z,21.80
2018-06-02T19:07:13.172Z,21.80
2018-06-02T19:09:40.637Z,21.70
2018-06-02T19:12:08.100Z,21.70
2018-06-02T19:14:35.587Z,21.70
2018-06-02T19:17:03.813Z,21.70
2018-06-02T19:19:31.296Z,21.70
2018-06-02T19:21:58.756Z,21.70
2018-06-02T19:25:02.558Z,21.70
2018-06-02T19:27:30.675Z,21.70
2018-06-02T19:29:58.779Z,21.60
2018-06-02T19:32:26.888Z,21.50
2018-06-02T19:34:55.005Z,21.50
2018-06-02T19:37:23.105Z,21.50
2018-06-02T19:39:51.217Z,21.50
2018-06-02T19:42:19.366Z,21.50
2018-06-02T19:44:47.484Z,21.50
2018-06-02T19:47:15.593Z,21.60
2018-06-02T19:49:43.715Z,21.60
2018-06-02T19:52:11.807Z,21.60
2018-06-02T19:54:39.930Z,21.60
2018-06-02T19:57:08.025Z,21.50
2018-06-02T19:59:36.165Z,21.40
2018-06-02T20:02:04.282Z,21.40
2018-06-02T20:04:32.401Z,21.30
2018-06-02T20:07:00.625Z,21.30
2018-06-02T20:09:28.733Z,21.20
2018-06-02T20:11:57.127Z,21.20
2018-06-02T20:14:25.244Z,21.20
2018-06-02T20:16:53.352Z,21.20
2018-06-02T20:19:21.464Z,21.10
2018-06-02T20:21:49.555Z,21.10
2018-06-02T20:24:17.660Z,21.00
2018-06-02T20:26:45.770Z,21.00
2018-06-02T20:29:13.895Z,21.00
2018-06-02T20:31:42.126Z,21.00
2018-06-02T20:34:10.237Z,21.00
2018-06-02T20:36:38.332Z,21.00
2018-06-02T20:39:06.436Z,21.00
2018-06-02T20:41:34.561Z,21.00
2018-06-02T20:44:02.673Z,21.00
2018-06-02T20:46:30.786Z,20.90
2018-06-02T20:48:58.955Z,20.90
2018-06-02T20:51:27.075Z,20.70
2018-06-02T20:53:55.196Z,20.70
2018-06-02T20:56:23.321Z,20.60
2018-06-02T20:58:51.471Z,20.40
2018-06-02T21:01:19.619Z,20.40
2018-06-02T21:03:47.741Z,20.20
2018-06-02T21:09:08.616Z,20.10
2018-06-02T21:11:36.836Z,20.10
2018-06-02T21:14:04.965Z,20.10
2018-06-02T21:16:33.064Z,20.00
2018-06-02T21:19:01.164Z,19.90
2018-06-02T21:21:29.267Z,19.90
2018-06-02T21:23:57.371Z,19.90
2018-06-02T21:26:25.471Z,19.90
2018-06-02T21:28:53.587Z,20.00
2018-06-02T21:31:21.832Z,20.10
2018-06-02T21:33:49.983Z,20.20
2018-06-02T21:36:18.052Z,20.30
2018-06-02T21:38:46.160Z,20.30
2018-06-02T21:44:07.160Z,20.40
2018-06-02T21:46:35.243Z,20.40
2018-06-02T21:49:03.374Z,20.30
2018-06-02T21:51:31.630Z,20.30
2018-06-02T21:53:59.720Z,20.20
2018-06-02T21:56:28.025Z,20.10
2018-06-02T21:58:56.244Z,20.10
2018-06-02T22:01:24.456Z,20.10
2018-06-02T22:03:52.555Z,20.10
2018-06-02T22:06:20.860Z,20.00
2018-06-02T22:08:48.997Z,20.10
2018-06-02T22:11:17.218Z,20.00
2018-06-02T22:13:45.332Z,19.80
2018-06-02T22:16:13.497Z,19.80
2018-06-02T22:18:41.596Z,19.70
2018-06-02T22:21:09.691Z,19.60
2018-06-02T22:23:37.800Z,19.70
2018-06-02T22:26:05.913Z,19.70
2018-06-02T22:28:34.098Z,19.60
2018-06-02T22:31:02.255Z,19.30
2018-06-02T22:33:30.456Z,19.10
2018-06-02T22:35:58.548Z,19.00
2018-06-02T22:38:26.669Z,19.00
2018-06-02T22:40:54.839Z,19.00
2018-06-02T22:43:23.039Z,19.00
2018-06-02T22:45:51.149Z,19.00
2018-06-02T22:48:19.243Z,18.90
2018-06-02T22:50:47.368Z,18.90
2018-06-02T22:53:15.575Z,18.80
2018-06-02T22:55:43.744Z,18.70
2018-06-02T22:58:11.897Z,18.70
2018-06-02T23:00:40.065Z,18.60
2018-06-02T23:03:08.200Z,18.50
2018-06-02T23:05:36.332Z,18.30
2018-06-02T23:08:04.444Z,18.20
2018-06-02T23:10:32.569Z,18.20
2018-06-02T23:13:00.814Z,18.20
2018-06-02T23:15:29.020Z,18.30
2018-06-02T23:17:57.124Z,18.40
2018-06-02T23:20:25.241Z,18.40
2018-06-02T23:22:53.369Z,18.40
2018-06-02T23:25:21.527Z,18.40
2018-06-02T23:27:49.719Z,18.50
2018-06-02T23:30:17.837Z,18.50
2018-06-02T23:32:45.963Z,18.50
2018-06-02T23:35:14.061Z,18.50
2018-06-02T23:37:42.165Z,18.60
2018-06-02T23:40:10.262Z,18.60
2018-06-02T23:42:38.475Z,18.50
2018-06-02T23:45:06.585Z,18.60
2018-06-02T23:47:34.671Z,18.60
2018-06-02T23:50:14.763Z,18.50
2018-06-02T23:52:42.887Z,18.50
2018-06-02T23:55:10.980Z,18.50
2018-06-02T23:57:39.084Z,18.40
